createdAt,value
2019-02-03T00:01:43.116Z,8.23
2019-02-03T00:04:13.995Z,7.87
2019-02-03T00:06:45.184Z,7.20
2019-02-03T00:09:18.063Z,7.30
2019-02-03T00:11:48.922Z,8.30
2019-02-03T00:14:19.547Z,8.50
2019-02-03T00:16:51.350Z,8.43
2019-02-03T00:19:21.852Z,7.20
2019-02-03T00:21:52.967Z,7.33
2019-02-03T00:24:23.603Z,8.13
2019-02-03T00:26:54.338Z,7.83
2019-02-03T00:29:24.918Z,7.20
2019-02-03T00:31:57.040Z,8.33
2019-02-03T00:34:27.909Z,8.33
2019-02-03T00:36:58.405Z,8.57
2019-02-03T00:39:29.218Z,7.37
2019-02-03T00:42:00.478Z,9.23
2019-02-03T00:44:31.940Z,8.20
2019-02-03T00:47:03.793Z,6.93
2019-02-03T00:49:34.140Z,7.53
2019-02-03T00:52:04.568Z,7.80
2019-02-03T00:54:35.698Z,7.53
2019-02-03T00:57:08.353Z,7.80
2019-02-03T00:59:39.065Z,6.20
2019-02-03T01:02:09.533Z,5.90
2019-02-03T01:04:40.403Z,5.97
2019-02-03T01:07:11.103Z,5.97
2019-02-03T01:09:41.873Z,5.97
2019-02-03T01:12:12.318Z,6.30
2019-02-03T01:14:43.064Z,6.03
2019-02-03T01:17:13.504Z,5.47
2019-02-03T01:19:43.721Z,6.07
2019-02-03T01:22:14.533Z,5.87
2019-02-03T01:24:45.092Z,8.10
2019-02-03T01:27:15.801Z,8.80
2019-02-03T01:29:47.431Z,9.70
2019-02-03T01:32:18.085Z,12.80
2019-02-03T01:34:48.688Z,13.43
2019-02-03T01:37:19.169Z,7.73
2019-02-03T01:39:52.062Z,5.80
2019-02-03T01:42:22.708Z,5.47
2019-02-03T01:44:53.249Z,5.97
2019-02-03T01:47:24.701Z,5.77
2019-02-03T01:49:55.115Z,8.17
2019-02-03T01:52:25.163Z,6.50
2019-02-03T01:54:55.778Z,7.70
2019-02-03T01:57:26.077Z,5.40
2019-02-03T01:59:56.474Z,6.27
2019-02-03T02:02:27.147Z,6.50
2019-02-03T02:04:57.659Z,5.90
2019-02-03T02:07:28.440Z,6.20
2019-02-03T02:09:58.687Z,7.70
2019-02-03T02:12:29.136Z,6.60
2019-02-03T02:15:00.739Z,5.63
2019-02-03T02:17:31.418Z,7.27
2019-02-03T02:20:01.986Z,6.50
2019-02-03T02:22:33.274Z,6.50
2019-02-03T02:25:03.727Z,6.27
2019-02-03T02:27:34.295Z,6.90
2019-02-03T02:30:06.601Z,7.00
2019-02-03T02:32:37.334Z,5.93
2019-02-03T02:35:09.109Z,7.37
2019-02-03T02:37:39.722Z,8.97
2019-02-03T02:40:13.887Z,8.00
2019-02-03T02:42:44.690Z,9.53
2019-02-03T02:45:15.785Z,8.23
2019-02-03T02:47:46.712Z,8.90
2019-02-03T02:50:39.159Z,8.77
2019-02-03T02:53:10.323Z,7.80
2019-02-03T02:55:41.838Z,7.53
2019-02-03T02:58:12.985Z,6.90
2019-02-03T03:00:43.638Z,7.30
2019-02-03T03:03:14.863Z,6.90
2019-02-03T03:05:45.471Z,8.30
2019-02-03T03:08:19.055Z,6.90
2019-02-03T03:10:48.347Z,8.80
2019-02-03T03:13:18.924Z,9.03
2019-02-03T03:15:50.656Z,7.40
2019-02-03T03:18:23.214Z,7.73
2019-02-03T03:20:53.773Z,7.73
2019-02-03T03:23:24.835Z,8.23
2019-02-03T03:25:55.285Z,9.00
2019-02-03T03:28:25.619Z,9.60
2019-02-03T03:30:56.621Z,8.30
2019-02-03T03:33:27.303Z,10.70
2019-02-03T03:35:59.231Z,9.67
2019-02-03T03:38:32.070Z,9.30
2019-02-03T03:41:02.250Z,9.40
2019-02-03T03:43:32.871Z,8.77
2019-02-03T03:46:06.506Z,8.77
2019-02-03T03:48:37.501Z,9.80
2019-02-03T03:51:08.675Z,8.80
2019-02-03T03:53:39.388Z,8.37
2019-02-03T03:56:10.919Z,10.33
2019-02-03T03:58:41.806Z,12.13
2019-02-03T04:01:12.935Z,9.27
2019-02-03T04:03:43.473Z,10.40
2019-02-03T04:06:13.809Z,9.03
2019-02-03T04:08:45.665Z,10.13
2019-02-03T04:11:16.404Z,12.13
2019-02-03T04:13:46.986Z,9.60
2019-02-03T04:16:18.964Z,10.57
2019-02-03T04:18:49.835Z,9.33
2019-02-03T04:21:20.886Z,10.00
2019-02-03T04:23:51.630Z,8.93
2019-02-03T04:26:22.493Z,10.50
2019-02-03T04:28:53.140Z,9.70
2019-02-03T04:31:23.872Z,10.20
2019-02-03T04:33:54.690Z,12.13
2019-02-03T04:36:25.304Z,12.53
2019-02-03T04:38:58.277Z,10.67
2019-02-03T04:41:28.448Z,9.13
2019-02-03T04:43:59.379Z,10.57
2019-02-03T04:46:29.794Z,9.73
2019-02-03T04:49:00.408Z,8.73
2019-02-03T04:51:31.061Z,9.80
2019-02-03T04:54:01.694Z,9.90
2019-02-03T04:56:32.493Z,9.43
2019-02-03T04:59:03.222Z,10.67
2019-02-03T05:01:33.972Z,10.23
2019-02-03T05:04:05.002Z,9.93
2019-02-03T05:06:35.843Z,9.77
2019-02-03T05:09:11.136Z,9.97
2019-02-03T05:11:41.820Z,8.70
2019-02-03T05:14:12.646Z,10.00
2019-02-03T05:16:44.102Z,9.97
2019-02-03T05:19:14.607Z,10.33
2019-02-03T05:21:45.341Z,9.33
2019-02-03T05:24:16.199Z,9.67
2019-02-03T05:26:46.733Z,8.60
2019-02-03T05:29:17.352Z,8.73
2019-02-03T05:31:48.446Z,8.27
2019-02-03T05:34:19.491Z,9.80
2019-02-03T05:36:50.004Z,9.80
2019-02-03T05:39:24.905Z,10.10
2019-02-03T05:41:53.135Z,7.80
2019-02-03T05:44:25.062Z,8.30
2019-02-03T05:46:55.549Z,9.00
2019-02-03T05:49:25.963Z,8.37
2019-02-03T05:51:56.669Z,7.53
2019-02-03T05:54:27.077Z,8.17
2019-02-03T05:56:57.978Z,8.73
2019-02-03T05:59:28.523Z,9.10
2019-02-03T06:01:59.356Z,9.27
2019-02-03T06:04:29.926Z,9.93
2019-02-03T06:07:00.535Z,10.13
2019-02-03T06:09:36.714Z,9.57
2019-02-03T06:12:03.320Z,10.23
2019-02-03T06:14:33.832Z,11.47
2019-02-03T06:17:05.952Z,10.00
2019-02-03T06:19:37.785Z,9.37
2019-02-03T06:22:09.006Z,9.77
2019-02-03T06:24:40.118Z,7.57
2019-02-03T06:27:10.476Z,7.60
2019-02-03T06:29:41.306Z,8.00
2019-02-03T06:32:12.173Z,8.90
2019-02-03T06:34:42.804Z,9.20
2019-02-03T06:37:13.419Z,8.73
2019-02-03T06:39:48.593Z,8.37
2019-02-03T06:42:16.708Z,8.67
2019-02-03T06:44:47.436Z,9.83
2019-02-03T06:47:26.594Z,11.97
2019-02-03T06:49:57.229Z,10.50
2019-02-03T06:52:27.733Z,9.13
2019-02-03T06:54:58.495Z,15.30
2019-02-03T06:57:29.395Z,41.93
2019-02-03T06:59:59.953Z,24.33
2019-02-03T07:02:30.433Z,9.80
2019-02-03T07:05:01.215Z,10.47
2019-02-03T07:07:35.628Z,9.13
2019-02-03T07:10:08.372Z,5.40
2019-02-03T07:12:39.079Z,6.37
2019-02-03T07:15:10.572Z,7.60
2019-02-03T07:17:42.336Z,6.03
2019-02-03T07:20:15.665Z,7.57
2019-02-03T07:22:46.606Z,7.23
2019-02-03T07:25:17.045Z,6.30
2019-02-03T07:27:47.672Z,6.87
2019-02-03T07:30:19.422Z,5.97
2019-02-03T07:32:52.398Z,5.93
2019-02-03T07:35:24.441Z,6.27
2019-02-03T07:37:56.039Z,5.50
2019-02-03T07:40:26.919Z,8.30
2019-02-03T07:42:57.650Z,8.20
2019-02-03T07:45:28.664Z,10.80
2019-02-03T07:47:58.982Z,9.27
2019-02-03T07:50:29.514Z,8.47
2019-02-03T07:52:59.731Z,6.87
2019-02-03T07:55:30.488Z,6.60
2019-02-03T07:58:01.452Z,7.10
2019-02-03T08:00:31.862Z,8.63
2019-02-03T08:03:02.225Z,6.47
2019-02-03T08:05:32.793Z,6.10
2019-02-03T08:08:03.755Z,6.00
2019-02-03T08:10:34.421Z,6.60
2019-02-03T08:13:05.548Z,6.60
2019-02-03T08:15:36.225Z,6.60
2019-02-03T08:18:09.772Z,7.93
2019-02-03T08:20:40.432Z,7.30
2019-02-03T08:23:11.192Z,7.97
2019-02-03T08:25:43.192Z,9.13
2019-02-03T08:28:13.927Z,7.97
2019-02-03T08:30:44.686Z,10.80
2019-02-03T08:33:15.466Z,7.23
2019-02-03T08:35:46.163Z,7.17
2019-02-03T08:38:16.765Z,8.23
2019-02-03T08:40:48.135Z,6.10
2019-02-03T08:43:21.789Z,5.67
2019-02-03T08:45:53.898Z,5.63
2019-02-03T08:48:25.567Z,6.90
2019-02-03T08:50:56.358Z,6.53
2019-02-03T08:53:27.354Z,6.90
2019-02-03T08:55:58.155Z,8.23
2019-02-03T08:58:29.564Z,6.37
2019-02-03T09:01:01.810Z,6.67
2019-02-03T09:03:33.050Z,5.80
2019-02-03T09:06:04.049Z,5.83
2019-02-03T09:08:34.676Z,7.83
2019-02-03T09:11:05.425Z,5.03
2019-02-03T09:13:36.902Z,5.93
2019-02-03T09:16:07.597Z,5.53
2019-02-03T09:18:39.390Z,5.13
2019-02-03T09:21:09.790Z,5.80
2019-02-03T09:23:40.241Z,6.80
2019-02-03T09:26:11.299Z,5.83
2019-02-03T09:28:41.927Z,6.30
2019-02-03T09:31:12.912Z,5.77
2019-02-03T09:33:45.940Z,6.97
2019-02-03T09:36:16.517Z,5.60
2019-02-03T09:38:47.011Z,6.77
2019-02-03T09:41:23.026Z,6.53
2019-02-03T09:43:58.135Z,7.73
2019-02-03T09:46:29.487Z,7.73
2019-02-03T09:49:00.056Z,7.30
2019-02-03T09:51:33.286Z,6.63
2019-02-03T09:54:05.001Z,7.30
2019-02-03T09:56:38.957Z,6.97
2019-02-03T09:59:09.886Z,6.67
2019-02-03T10:01:40.565Z,7.10
2019-02-03T10:04:11.297Z,6.90
2019-02-03T10:06:42.341Z,7.60
2019-02-03T10:09:12.960Z,6.73
2019-02-03T10:11:43.836Z,5.93
2019-02-03T10:14:13.966Z,6.90
2019-02-03T10:16:47.469Z,6.60
2019-02-03T10:19:18.220Z,7.60
2019-02-03T10:21:49.018Z,6.57
2019-02-03T10:24:20.099Z,6.10
2019-02-03T10:26:51.349Z,6.23
2019-02-03T10:29:21.590Z,7.50
2019-02-03T10:31:52.298Z,6.77
2019-02-03T10:34:22.937Z,6.27
2019-02-03T10:36:53.344Z,5.80
2019-02-03T10:39:25.148Z,6.50
2019-02-03T10:41:56.028Z,6.93
2019-02-03T10:44:26.662Z,7.37
2019-02-03T10:46:57.490Z,7.47
2019-02-03T10:49:28.249Z,6.53
2019-02-03T10:51:59.388Z,7.47
2019-02-03T10:54:30.664Z,6.00
2019-02-03T10:57:01.959Z,7.67
2019-02-03T10:59:32.542Z,7.60
2019-02-03T11:02:04.029Z,6.83
2019-02-03T11:04:35.393Z,7.43
2019-02-03T11:07:06.484Z,6.40
2019-02-03T11:09:37.000Z,7.90
2019-02-03T11:12:07.691Z,7.43
2019-02-03T11:14:38.671Z,7.90
2019-02-03T11:17:10.435Z,7.80
2019-02-03T11:19:43.454Z,8.77
2019-02-03T11:22:14.949Z,7.70
2019-02-03T11:24:45.755Z,8.50
2019-02-03T11:27:16.339Z,9.10
2019-02-03T11:29:47.089Z,7.57
2019-02-03T11:32:18.150Z,7.87
2019-02-03T11:34:48.546Z,7.90
2019-02-03T11:37:21.010Z,7.17
2019-02-03T11:39:51.714Z,7.67
2019-02-03T11:42:22.193Z,8.17
2019-02-03T11:44:53.110Z,7.47
2019-02-03T11:47:23.848Z,7.03
2019-02-03T11:49:54.486Z,7.37
2019-02-03T11:52:25.719Z,6.93
2019-02-03T11:54:56.725Z,7.93
2019-02-03T11:57:27.589Z,7.10
2019-02-03T11:59:58.387Z,7.53
2019-02-03T12:02:29.342Z,6.60
2019-02-03T12:04:59.486Z,7.63
2019-02-03T12:07:30.055Z,6.93
2019-02-03T12:10:00.430Z,7.33
2019-02-03T12:12:30.980Z,7.27
2019-02-03T12:15:54.479Z,7.60
2019-02-03T12:18:24.999Z,8.17
2019-02-03T12:20:57.084Z,7.20
2019-02-03T12:23:27.553Z,6.87
2019-02-03T12:25:58.068Z,6.30
2019-02-03T12:28:29.933Z,6.60
2019-02-03T12:31:01.581Z,7.07
2019-02-03T12:33:33.422Z,6.27
2019-02-03T12:36:04.552Z,6.57
2019-02-03T12:38:37.599Z,7.00
2019-02-03T12:41:08.566Z,6.40
2019-02-03T12:43:40.154Z,6.40
2019-02-03T12:46:10.915Z,6.97
2019-02-03T12:48:41.617Z,7.00
2019-02-03T12:51:12.529Z,6.83
2019-02-03T12:53:44.268Z,7.27
2019-02-03T12:56:15.355Z,7.77
2019-02-03T12:58:47.514Z,8.70
2019-02-03T13:01:20.829Z,7.07
2019-02-03T13:03:51.681Z,7.33
2019-02-03T13:06:23.411Z,6.67
2019-02-03T13:08:53.828Z,8.50
2019-02-03T13:11:24.770Z,8.97
2019-02-03T13:13:55.768Z,8.23
2019-02-03T13:16:26.146Z,7.20
2019-02-03T13:18:57.343Z,6.87
2019-02-03T13:21:29.002Z,7.83
2019-02-03T13:23:59.863Z,7.60
2019-02-03T13:26:31.047Z,7.67
2019-02-03T13:29:01.398Z,7.17
2019-02-03T13:31:31.919Z,7.80
2019-02-03T13:34:03.725Z,7.50
2019-02-03T13:36:35.185Z,8.03
2019-02-03T13:39:09.025Z,7.50
2019-02-03T13:41:40.068Z,10.10
2019-02-03T13:44:10.427Z,8.20
2019-02-03T13:46:40.952Z,10.93
2019-02-03T13:49:11.398Z,9.07
2019-02-03T13:51:42.112Z,8.20
2019-02-03T13:54:12.902Z,17.63
2019-02-03T13:56:43.510Z,14.23
2019-02-03T13:59:13.977Z,9.23
2019-02-03T14:01:44.493Z,7.73
2019-02-03T14:04:14.984Z,11.73
2019-02-03T14:06:45.476Z,8.30
2019-02-03T14:11:45.604Z,8.63
2019-02-03T14:14:16.122Z,10.03
2019-02-03T14:16:46.719Z,9.43
2019-02-03T14:19:17.433Z,8.00
2019-02-03T14:21:49.452Z,8.43
2019-02-03T14:24:19.993Z,9.60
2019-02-03T14:26:51.317Z,7.87
2019-02-03T14:29:22.009Z,8.13
2019-02-03T14:31:52.409Z,11.20
2019-02-03T14:34:22.796Z,7.40
2019-02-03T14:36:54.202Z,8.40
2019-02-03T14:39:25.192Z,7.10
2019-02-03T14:41:55.913Z,8.40
2019-02-03T14:44:26.898Z,8.73
2019-02-03T14:46:57.529Z,16.20
2019-02-03T14:49:28.411Z,33.93
2019-02-03T14:51:59.153Z,110.10
2019-02-03T14:54:29.624Z,26.63
2019-02-03T14:57:00.520Z,18.57
2019-02-03T14:59:32.390Z,20.60
2019-02-03T15:02:03.769Z,46.70
2019-02-03T15:04:35.250Z,28.77
2019-02-03T15:07:06.622Z,25.30
2019-02-03T15:09:37.676Z,22.30
2019-02-03T15:12:08.336Z,19.60
2019-02-03T15:14:37.679Z,21.07
2019-02-03T15:17:08.740Z,20.60
2019-02-03T15:19:40.452Z,19.50
2019-02-03T15:22:12.005Z,20.10
2019-02-03T15:24:43.229Z,21.10
2019-02-03T15:27:14.034Z,22.23
2019-02-03T15:29:43.178Z,17.10
2019-02-03T15:32:13.927Z,16.30
2019-02-03T15:34:44.418Z,13.67
2019-02-03T15:37:15.021Z,18.63
2019-02-03T15:39:45.376Z,17.80
2019-02-03T15:42:17.199Z,17.80
2019-02-03T15:44:49.819Z,16.07
2019-02-03T15:47:20.226Z,22.90
2019-02-03T15:49:51.350Z,37.70
2019-02-03T15:52:21.786Z,34.00
2019-02-03T15:54:52.943Z,34.90
2019-02-03T15:57:24.067Z,46.40
2019-02-03T15:59:55.206Z,41.10
2019-02-03T16:02:27.470Z,53.40
2019-02-03T16:04:57.747Z,55.63
2019-02-03T16:07:29.250Z,78.20
2019-02-03T16:09:59.716Z,71.87
2019-02-03T16:12:30.289Z,73.67
2019-02-03T16:15:01.159Z,59.13
2019-02-03T16:17:32.101Z,57.70
2019-02-03T16:20:02.550Z,56.07
2019-02-03T16:22:34.577Z,56.87
2019-02-03T16:25:06.128Z,52.97
2019-02-03T16:27:37.248Z,55.47
2019-02-03T16:30:09.573Z,40.00
2019-02-03T16:32:39.755Z,57.90
2019-02-03T16:35:11.214Z,54.50
2019-02-03T16:37:41.890Z,47.70
2019-02-03T16:40:18.143Z,39.90
2019-02-03T16:42:49.303Z,18.30
2019-02-03T16:45:19.917Z,11.20
2019-02-03T16:47:51.149Z,14.00
2019-02-03T16:50:27.952Z,10.77
2019-02-03T16:52:59.417Z,9.23
2019-02-03T16:55:30.849Z,9.40
2019-02-03T16:58:01.738Z,10.83
2019-02-03T17:00:34.080Z,11.93
2019-02-03T17:03:05.558Z,10.73
2019-02-03T17:05:36.616Z,11.17
2019-02-03T17:08:08.371Z,11.40
2019-02-03T17:10:39.655Z,13.87
2019-02-03T17:13:10.709Z,21.83
2019-02-03T17:15:54.476Z,45.07
2019-02-03T17:18:25.412Z,27.57
2019-02-03T17:21:02.179Z,42.60
2019-02-03T17:23:29.959Z,32.60
2019-02-03T17:26:04.215Z,38.10
2019-02-03T17:28:34.821Z,29.73
2019-02-03T17:31:05.527Z,30.40
2019-02-03T17:33:38.038Z,32.50
2019-02-03T17:36:09.197Z,29.23
2019-02-03T17:38:39.689Z,29.90
2019-02-03T17:41:11.180Z,34.47
2019-02-03T17:43:42.274Z,50.27
2019-02-03T17:46:13.674Z,48.30
2019-02-03T17:48:44.191Z,37.07
2019-02-03T17:51:15.122Z,30.07
2019-02-03T17:53:45.820Z,22.23
2019-02-03T17:56:16.737Z,16.93
2019-02-03T17:58:47.375Z,13.27
2019-02-03T18:01:18.335Z,13.67
2019-02-03T18:03:49.470Z,12.50
2019-02-03T18:06:20.214Z,13.00
2019-02-03T18:08:50.700Z,13.47
2019-02-03T18:11:21.996Z,15.30
2019-02-03T18:13:54.254Z,17.00
2019-02-03T18:16:24.845Z,13.57
2019-02-03T18:18:56.159Z,15.63
2019-02-03T18:21:26.646Z,18.00
2019-02-03T18:23:58.352Z,17.07
2019-02-03T18:26:29.217Z,14.83
2019-02-03T18:28:59.839Z,15.40
2019-02-03T18:31:30.662Z,15.90
2019-02-03T18:34:01.139Z,16.10
2019-02-03T18:36:32.999Z,15.23
2019-02-03T18:39:06.093Z,12.73
2019-02-03T18:41:36.833Z,11.70
2019-02-03T18:44:04.829Z,10.40
2019-02-03T18:46:35.689Z,10.43
2019-02-03T18:49:06.701Z,10.87
2019-02-03T18:51:37.491Z,10.93
2019-02-03T18:54:08.551Z,14.77
2019-02-03T18:56:39.526Z,16.07
2019-02-03T18:59:10.743Z,16.40
2019-02-03T19:01:41.361Z,18.07
2019-02-03T19:04:13.696Z,20.17
2019-02-03T19:06:45.995Z,17.67
2019-02-03T19:09:16.888Z,20.47
2019-02-03T19:11:47.974Z,19.30
2019-02-03T19:14:20.326Z,14.13
2019-02-03T19:16:51.327Z,13.20
2019-02-03T19:19:21.916Z,10.93
2019-02-03T19:21:52.761Z,10.73
2019-02-03T19:24:24.495Z,8.20
2019-02-03T19:26:55.124Z,9.00
2019-02-03T19:29:26.041Z,7.90
2019-02-03T19:31:56.673Z,8.20
2019-02-03T19:34:28.895Z,8.67
2019-02-03T19:39:29.196Z,9.33
2019-02-03T19:42:00.270Z,8.00
2019-02-03T19:44:31.038Z,8.30
2019-02-03T19:47:01.526Z,7.77
2019-02-03T19:49:32.585Z,8.30
2019-02-03T19:52:03.720Z,9.10
2019-02-03T19:54:35.258Z,9.27
2019-02-03T19:57:06.184Z,7.20
2019-02-03T19:59:46.526Z,9.33
2019-02-03T20:02:09.662Z,7.20
2019-02-03T20:04:40.536Z,9.37
2019-02-03T20:07:11.596Z,11.27
2019-02-03T20:09:42.560Z,10.10
2019-02-03T20:12:14.339Z,10.30
2019-02-03T20:14:45.319Z,11.30
2019-02-03T20:17:16.174Z,9.63
2019-02-03T20:19:48.152Z,9.50
2019-02-03T20:22:20.433Z,8.57
2019-02-03T20:24:51.917Z,9.77
2019-02-03T20:27:22.691Z,7.30
2019-02-03T20:29:53.468Z,8.07
2019-02-03T20:32:24.512Z,8.43
2019-02-03T20:34:55.254Z,8.10
2019-02-03T20:37:26.704Z,7.33
2019-02-03T20:40:02.006Z,8.17
2019-02-03T20:42:29.998Z,7.07
2019-02-03T20:45:00.722Z,8.00
2019-02-03T20:47:31.892Z,7.17
2019-02-03T20:50:02.761Z,7.87
2019-02-03T20:52:33.647Z,7.50
2019-02-03T20:55:04.370Z,8.33
2019-02-03T20:57:35.605Z,8.57
2019-02-03T21:00:08.576Z,8.10
2019-02-03T21:02:39.532Z,8.17
2019-02-03T21:05:10.579Z,6.00
2019-02-03T21:07:42.174Z,6.80
2019-02-03T21:10:15.204Z,8.30
2019-02-03T21:12:46.624Z,6.77
2019-02-03T21:15:19.471Z,8.80
2019-02-03T21:17:51.136Z,7.90
2019-02-03T21:20:23.752Z,10.97
2019-02-03T21:22:54.449Z,7.40
2019-02-03T21:25:26.457Z,7.00
2019-02-03T21:27:57.540Z,7.47
2019-02-03T21:30:33.818Z,5.90
2019-02-03T21:33:05.150Z,6.90
2019-02-03T21:35:36.181Z,8.43
2019-02-03T21:38:09.060Z,7.80
2019-02-03T21:40:39.885Z,6.97
2019-02-03T21:43:10.614Z,7.40
2019-02-03T21:45:45.039Z,8.50
2019-02-03T21:48:13.795Z,9.40
2019-02-03T21:50:44.304Z,12.53
2019-02-03T21:53:15.372Z,17.80
2019-02-03T21:55:45.774Z,16.03
2019-02-03T21:58:16.463Z,14.70
2019-02-03T22:00:47.303Z,14.50
2019-02-03T22:03:17.868Z,13.73
2019-02-03T22:05:48.583Z,12.40
2019-02-03T22:08:19.481Z,11.90
2019-02-03T22:10:49.870Z,12.00
2019-02-03T22:13:20.878Z,12.60
2019-02-03T22:15:55.830Z,11.43
2019-02-03T22:18:24.254Z,11.70
2019-02-03T22:20:54.737Z,11.23
2019-02-03T22:23:25.247Z,11.37
2019-02-03T22:25:56.479Z,11.27
2019-02-03T22:28:27.131Z,11.60
2019-02-03T22:30:57.815Z,12.07
2019-02-03T22:33:28.930Z,11.37
2019-02-03T22:36:02.563Z,10.70
2019-02-03T22:38:33.282Z,9.80
2019-02-03T22:41:03.914Z,12.20
2019-02-03T22:43:34.427Z,10.97
2019-02-03T22:46:07.278Z,12.53
2019-02-03T22:48:37.804Z,11.40
2019-02-03T22:51:10.627Z,14.00
2019-02-03T22:53:41.148Z,13.20
2019-02-03T22:56:11.732Z,11.83
2019-02-03T22:58:43.824Z,12.60
2019-02-03T23:01:23.931Z,11.30
2019-02-03T23:04:07.926Z,11.27
2019-02-03T23:06:38.723Z,11.40
2019-02-03T23:09:32.862Z,11.53
2019-02-03T23:12:05.502Z,11.10
2019-02-03T23:14:36.286Z,10.27
2019-02-03T23:17:08.866Z,10.37
2019-02-03T23:19:39.337Z,10.77
2019-02-03T23:22:09.860Z,13.00
2019-02-03T23:24:40.517Z,16.47
2019-02-03T23:27:12.739Z,15.60
2019-02-03T23:29:43.579Z,13.27
2019-02-03T23:32:14.244Z,15.47
2019-02-03T23:34:44.562Z,12.63
2019-02-03T23:37:15.582Z,10.00
2019-02-03T23:39:46.740Z,11.10
2019-02-03T23:42:17.702Z,13.80
2019-02-03T23:44:48.348Z,17.13
2019-02-03T23:47:18.929Z,17.17
2019-02-03T23:49:49.588Z,17.57
2019-02-03T23:52:20.704Z,12.30
2019-02-03T23:54:51.274Z,10.03
2019-02-03T23:57:22.136Z,15.40
2019-02-03T23:59:53.142Z,15.20
